createdAt,value
2023-02-25T00:01:38.824Z,100.00
2023-02-25T00:04:05.630Z,100.00
2023-02-25T00:06:32.480Z,100.00
2023-02-25T00:08:59.408Z,100.00
2023-02-25T00:11:27.430Z,100.00
2023-02-25T00:13:55.274Z,100.00
2023-02-25T00:16:26.106Z,100.00
2023-02-25T00:18:57.662Z,100.00
2023-02-25T00:21:25.753Z,100.00
2023-02-25T00:23:58.227Z,100.00
2023-02-25T00:26:26.962Z,100.00
2023-02-25T00:28:53.906Z,100.00
2023-02-25T00:31:24.693Z,100.00
2023-02-25T00:33:52.770Z,100.00
2023-02-25T00:36:25.121Z,100.00
2023-02-25T00:38:56.198Z,100.00
2023-02-25T00:41:27.546Z,100.00
2023-02-25T00:43:59.490Z,100.00
2023-02-25T00:46:31.624Z,100.00
2023-02-25T00:48:59.807Z,99.97
2023-02-25T00:51:32.972Z,98.98
2023-02-25T00:54:00.481Z,97.27
2023-02-25T00:56:27.690Z,93.49
2023-02-25T00:58:54.567Z,96.27
2023-02-25T01:01:27.845Z,96.99
2023-02-25T01:03:57.671Z,95.10
2023-02-25T01:06:28.594Z,94.99
2023-02-25T01:08:55.782Z,95.95
2023-02-25T01:11:29.269Z,97.66
2023-02-25T01:14:06.156Z,97.29
2023-02-25T01:16:35.167Z,96.11
2023-02-25T01:19:07.908Z,97.10
2023-02-25T01:21:42.931Z,96.96
2023-02-25T01:24:31.798Z,97.10
2023-02-25T01:27:02.826Z,95.87
2023-02-25T01:29:36.816Z,97.47
2023-02-25T01:32:13.941Z,96.38
2023-02-25T01:34:41.325Z,96.84
2023-02-25T01:37:09.160Z,96.05
2023-02-25T01:39:36.255Z,96.38
2023-02-25T01:42:13.190Z,96.35
2023-02-25T01:45:24.771Z,99.02
2023-02-25T01:48:09.659Z,96.44
2023-02-25T01:50:47.501Z,95.00
2023-02-25T01:53:21.643Z,99.67
2023-02-25T01:55:48.988Z,99.46
2023-02-25T01:58:17.651Z,98.25
2023-02-25T02:00:45.145Z,95.82
2023-02-25T02:03:18.274Z,94.17
2023-02-25T02:05:59.788Z,95.33
2023-02-25T02:08:27.840Z,93.95
2023-02-25T02:10:56.354Z,91.62
2023-02-25T02:13:24.428Z,91.10
2023-02-25T02:16:19.703Z,91.72
2023-02-25T02:19:27.910Z,91.73
2023-02-25T02:22:05.354Z,92.20
2023-02-25T02:25:18.881Z,89.82
2023-02-25T02:27:55.234Z,91.52
2023-02-25T02:30:30.802Z,91.20
2023-02-25T02:33:18.690Z,91.34
2023-02-25T02:36:05.797Z,90.14
2023-02-25T02:38:55.111Z,89.63
2023-02-25T02:41:44.852Z,88.34
2023-02-25T02:44:43.284Z,89.72
2023-02-25T02:47:21.968Z,89.47
2023-02-25T02:50:00.559Z,86.75
2023-02-25T02:52:32.993Z,89.52
2023-02-25T02:55:22.933Z,87.72
2023-02-25T02:58:24.500Z,87.85
2023-02-25T03:01:01.629Z,87.32
2023-02-25T03:03:41.623Z,88.12
2023-02-25T03:06:18.700Z,89.48
2023-02-25T03:08:53.885Z,88.67
2023-02-25T03:11:20.976Z,87.44
2023-02-25T03:13:48.740Z,88.29
2023-02-25T03:16:36.861Z,87.70
2023-02-25T03:19:08.220Z,87.60
2023-02-25T03:21:49.574Z,90.40
2023-02-25T03:24:25.032Z,87.77
2023-02-25T03:26:53.134Z,89.12
2023-02-25T03:29:24.875Z,88.33
2023-02-25T03:32:10.333Z,84.66
2023-02-25T03:34:44.995Z,84.13
2023-02-25T03:37:20.418Z,82.44
2023-02-25T03:39:55.581Z,80.13
2023-02-25T03:42:32.544Z,79.35
2023-02-25T03:45:05.181Z,79.71
2023-02-25T03:47:37.122Z,80.83
2023-02-25T03:50:30.878Z,80.56
2023-02-25T03:52:58.298Z,79.70
2023-02-25T03:55:25.383Z,78.17
2023-02-25T03:57:52.579Z,78.94
2023-02-25T04:00:28.818Z,77.89
2023-02-25T04:02:56.523Z,80.27
2023-02-25T04:05:27.561Z,79.31
2023-02-25T04:07:56.544Z,78.94
2023-02-25T04:10:24.228Z,78.34
2023-02-25T04:12:52.285Z,79.14
2023-02-25T04:15:20.835Z,77.65
2023-02-25T04:17:47.640Z,78.43
2023-02-25T04:20:16.937Z,78.97
2023-02-25T04:22:44.022Z,76.86
2023-02-25T04:25:10.952Z,76.56
2023-02-25T04:27:37.854Z,76.98
2023-02-25T04:30:05.682Z,77.88
2023-02-25T04:32:32.671Z,76.67
2023-02-25T04:35:03.158Z,77.08
2023-02-25T04:37:30.987Z,78.36
2023-02-25T04:40:01.150Z,77.73
2023-02-25T04:42:27.969Z,79.33
2023-02-25T04:44:54.729Z,79.92
2023-02-25T04:47:21.503Z,78.89
2023-02-25T04:49:48.296Z,77.22
2023-02-25T04:52:15.616Z,77.17
2023-02-25T04:54:42.689Z,78.18
2023-02-25T04:57:11.667Z,81.04
2023-02-25T04:59:39.136Z,79.84
2023-02-25T05:02:07.533Z,79.70
2023-02-25T05:04:36.326Z,78.91
2023-02-25T05:07:05.004Z,80.13
2023-02-25T05:09:32.906Z,79.55
2023-02-25T05:11:59.900Z,78.58
2023-02-25T05:14:26.944Z,78.31
2023-02-25T05:16:53.956Z,77.95
2023-02-25T05:19:25.623Z,77.75
2023-02-25T05:21:53.967Z,76.66
2023-02-25T05:24:23.369Z,77.18
2023-02-25T05:26:51.336Z,77.02
2023-02-25T05:29:21.454Z,75.62
2023-02-25T05:31:51.678Z,75.95
2023-02-25T05:34:18.892Z,75.78
2023-02-25T05:36:47.119Z,75.80
2023-02-25T05:39:14.487Z,75.00
2023-02-25T05:41:44.003Z,74.79
2023-02-25T05:44:14.455Z,75.34
2023-02-25T05:46:43.969Z,74.75
2023-02-25T05:49:11.281Z,74.72
2023-02-25T05:51:38.292Z,74.82
2023-02-25T05:54:08.142Z,74.19
2023-02-25T05:56:34.896Z,73.78
2023-02-25T05:59:01.857Z,75.02
2023-02-25T06:01:29.626Z,74.25
2023-02-25T06:03:59.704Z,74.24
2023-02-25T06:06:30.457Z,74.88
2023-02-25T06:09:00.589Z,73.84
2023-02-25T06:11:30.769Z,73.78
2023-02-25T06:13:59.520Z,74.99
2023-02-25T06:16:32.745Z,74.35
2023-02-25T06:19:01.463Z,74.91
2023-02-25T06:21:29.462Z,74.05
2023-02-25T06:23:56.515Z,74.18
2023-02-25T06:26:24.158Z,74.40
2023-02-25T06:28:51.234Z,74.88
2023-02-25T06:31:22.341Z,74.70
2023-02-25T06:33:50.933Z,73.70
2023-02-25T06:36:21.371Z,73.38
2023-02-25T06:38:48.751Z,73.69
2023-02-25T06:41:21.497Z,73.41
2023-02-25T06:43:52.535Z,73.03
2023-02-25T06:46:26.073Z,72.40
2023-02-25T06:48:54.633Z,72.82
2023-02-25T06:51:22.296Z,73.06
2023-02-25T06:53:50.977Z,72.09
2023-02-25T06:56:20.133Z,71.66
2023-02-25T06:58:47.889Z,71.10
2023-02-25T07:01:16.827Z,71.29
2023-02-25T07:03:44.060Z,70.68
2023-02-25T07:06:11.796Z,71.50
2023-02-25T07:08:38.640Z,70.99
2023-02-25T07:11:29.366Z,71.05
2023-02-25T07:14:00.655Z,69.99
2023-02-25T07:16:29.880Z,69.43
2023-02-25T07:19:02.044Z,68.81
2023-02-25T07:21:30.891Z,68.87
2023-02-25T07:24:01.390Z,68.60
2023-02-25T07:26:28.596Z,67.86
2023-02-25T07:28:59.841Z,67.08
2023-02-25T07:31:28.881Z,67.96
2023-02-25T07:33:56.209Z,67.85
2023-02-25T07:36:23.528Z,69.34
2023-02-25T07:38:50.440Z,70.11
2023-02-25T07:41:19.675Z,70.74
2023-02-25T07:43:46.811Z,70.64
2023-02-25T07:46:13.830Z,69.97
2023-02-25T07:48:41.377Z,68.63
2023-02-25T07:51:15.606Z,68.08
2023-02-25T07:53:42.848Z,66.85
2023-02-25T07:56:10.361Z,66.26
2023-02-25T07:58:37.410Z,66.41
2023-02-25T08:01:18.302Z,66.96
2023-02-25T08:03:49.067Z,66.66
2023-02-25T08:06:15.880Z,66.46
2023-02-25T08:08:42.849Z,66.54
2023-02-25T08:11:13.161Z,66.77
2023-02-25T08:13:41.265Z,67.46
2023-02-25T08:16:12.040Z,65.48
2023-02-25T08:18:41.070Z,65.59
2023-02-25T08:21:08.493Z,65.60
2023-02-25T08:23:35.362Z,64.97
2023-02-25T08:26:04.380Z,63.84
2023-02-25T08:28:35.446Z,64.29
2023-02-25T08:31:07.649Z,62.96
2023-02-25T08:33:49.881Z,62.51
2023-02-25T08:36:21.529Z,62.41
2023-02-25T08:38:50.244Z,62.04
2023-02-25T08:41:19.710Z,61.26
2023-02-25T08:43:55.889Z,59.87
2023-02-25T08:46:26.536Z,60.17
2023-02-25T08:48:54.530Z,60.90
2023-02-25T08:51:24.659Z,61.01
2023-02-25T08:53:52.269Z,60.33
2023-02-25T08:56:19.285Z,60.36
2023-02-25T08:58:46.114Z,59.37
2023-02-25T09:01:17.750Z,59.35
2023-02-25T09:03:55.255Z,59.25
2023-02-25T09:06:28.315Z,59.24
2023-02-25T09:08:57.036Z,59.09
2023-02-25T09:11:25.906Z,59.78
2023-02-25T09:13:54.305Z,59.84
2023-02-25T09:16:21.795Z,60.22
2023-02-25T09:18:51.318Z,59.73
2023-02-25T09:21:19.686Z,60.70
2023-02-25T09:23:47.130Z,60.85
2023-02-25T09:26:14.905Z,60.06
2023-02-25T09:28:41.949Z,60.82
2023-02-25T09:31:09.017Z,61.20
2023-02-25T09:33:37.812Z,61.40
2023-02-25T09:36:18.613Z,61.43
2023-02-25T09:38:48.500Z,61.33
2023-02-25T09:41:27.640Z,61.92
2023-02-25T09:44:10.670Z,62.98
2023-02-25T09:46:45.694Z,63.71
2023-02-25T09:49:31.526Z,64.27
2023-02-25T09:52:10.765Z,63.16
2023-02-25T09:55:03.913Z,64.05
2023-02-25T09:57:38.286Z,63.62
2023-02-25T10:00:18.665Z,63.60
2023-02-25T10:03:02.294Z,62.69
2023-02-25T10:05:45.078Z,63.34
2023-02-25T10:08:37.978Z,61.29
2023-02-25T10:11:19.031Z,59.87
2023-02-25T10:14:01.628Z,60.33
2023-02-25T10:17:05.600Z,60.23
2023-02-25T10:19:57.603Z,59.91
2023-02-25T10:23:07.909Z,59.34
2023-02-25T10:25:45.551Z,59.83
2023-02-25T10:28:18.094Z,60.56
2023-02-25T10:30:45.066Z,59.71
2023-02-25T10:33:27.898Z,59.85
2023-02-25T10:36:41.254Z,57.41
2023-02-25T10:39:14.959Z,58.25
2023-02-25T10:41:41.871Z,57.63
2023-02-25T10:44:13.259Z,57.47
2023-02-25T10:46:52.392Z,57.12
2023-02-25T10:49:26.306Z,56.46
2023-02-25T10:52:19.940Z,55.57
2023-02-25T10:54:50.934Z,56.68
2023-02-25T10:57:27.432Z,56.32
2023-02-25T11:00:28.936Z,56.25
2023-02-25T11:03:01.268Z,56.07
2023-02-25T11:05:42.121Z,56.65
2023-02-25T11:08:33.205Z,57.56
2023-02-25T11:11:06.677Z,57.54
2023-02-25T11:13:37.089Z,57.61
2023-02-25T11:16:12.379Z,58.55
2023-02-25T11:18:41.817Z,59.08
2023-02-25T11:21:16.191Z,59.65
2023-02-25T11:23:43.294Z,59.28
2023-02-25T11:26:27.198Z,59.00
2023-02-25T11:28:55.686Z,59.68
2023-02-25T11:31:33.237Z,60.17
2023-02-25T11:34:05.253Z,60.34
2023-02-25T11:36:39.689Z,60.88
2023-02-25T11:39:25.020Z,61.70
2023-02-25T11:42:20.860Z,62.42
2023-02-25T11:44:47.712Z,62.75
2023-02-25T11:47:31.805Z,62.00
2023-02-25T11:50:26.753Z,62.08
2023-02-25T11:53:21.545Z,62.29
2023-02-25T11:56:20.668Z,62.24
2023-02-25T11:59:37.255Z,62.08
2023-02-25T12:02:46.787Z,62.10
2023-02-25T12:05:50.360Z,62.32
2023-02-25T12:08:41.057Z,62.23
2023-02-25T12:12:07.008Z,62.55
2023-02-25T12:15:07.635Z,62.66
2023-02-25T12:18:06.717Z,62.61
2023-02-25T12:21:19.164Z,62.52
2023-02-25T12:24:49.418Z,63.42
2023-02-25T12:27:57.942Z,64.81
2023-02-25T12:31:01.716Z,64.81
2023-02-25T12:33:50.103Z,66.73
2023-02-25T12:37:15.949Z,69.30
2023-02-25T12:40:02.272Z,71.39
2023-02-25T12:43:09.777Z,72.02
2023-02-25T12:46:26.403Z,72.04
2023-02-25T12:49:32.181Z,72.03
2023-02-25T12:52:35.319Z,70.16
2023-02-25T12:55:33.979Z,69.69
2023-02-25T12:58:27.800Z,69.17
2023-02-25T13:01:30.007Z,68.38
2023-02-25T13:04:24.907Z,67.79
2023-02-25T13:07:35.288Z,66.61
2023-02-25T13:10:21.103Z,65.93
2023-02-25T13:13:26.031Z,65.20
2023-02-25T13:16:42.721Z,63.09
2023-02-25T13:19:44.081Z,58.95
2023-02-25T13:22:40.227Z,58.99
2023-02-25T13:26:06.169Z,59.67
2023-02-25T13:29:14.075Z,58.42
2023-02-25T13:32:26.783Z,53.30
2023-02-25T13:35:26.078Z,48.81
2023-02-25T13:38:18.031Z,46.91
2023-02-25T13:41:05.037Z,46.47
2023-02-25T13:44:19.800Z,44.24
2023-02-25T13:47:24.315Z,42.88
2023-02-25T13:50:42.134Z,42.71
2023-02-25T13:53:56.083Z,47.27
2023-02-25T13:56:43.598Z,48.13
2023-02-25T13:59:38.426Z,50.37
2023-02-25T14:03:01.557Z,51.53
2023-02-25T14:05:34.104Z,55.61
2023-02-25T14:09:06.572Z,50.16
2023-02-25T14:12:12.836Z,50.93
2023-02-25T14:15:18.127Z,51.58
2023-02-25T14:18:20.212Z,51.76
2023-02-25T14:21:25.840Z,52.61
2023-02-25T14:24:42.863Z,51.93
2023-02-25T14:27:24.333Z,52.47
2023-02-25T14:30:29.915Z,52.35
2023-02-25T14:33:26.296Z,52.01
2023-02-25T14:36:16.200Z,52.49
2023-02-25T14:39:13.853Z,51.54
2023-02-25T14:42:06.432Z,51.60
2023-02-25T14:44:59.520Z,51.72
2023-02-25T14:47:36.352Z,51.76
2023-02-25T14:50:18.476Z,52.32
2023-02-25T14:53:10.603Z,52.66
2023-02-25T14:55:58.070Z,53.02
2023-02-25T14:59:03.781Z,52.70
2023-02-25T15:02:08.127Z,52.70
2023-02-25T15:05:05.375Z,52.94
2023-02-25T15:08:00.846Z,53.35
2023-02-25T15:10:47.601Z,52.96
2023-02-25T15:13:36.331Z,52.56
2023-02-25T15:16:52.425Z,53.01
2023-02-25T15:19:40.470Z,53.61
2023-02-25T15:22:25.234Z,53.88
2023-02-25T15:25:20.992Z,53.42
2023-02-25T15:27:56.512Z,53.09
2023-02-25T15:30:26.473Z,53.77
2023-02-25T15:32:59.516Z,53.42
2023-02-25T15:35:35.553Z,53.13
2023-02-25T15:38:19.094Z,53.31
2023-02-25T15:40:50.992Z,53.66
2023-02-25T15:43:20.342Z,53.80
2023-02-25T15:46:07.391Z,53.99
2023-02-25T15:48:40.282Z,53.63
2023-02-25T15:51:31.757Z,53.65
2023-02-25T15:53:59.167Z,54.37
2023-02-25T15:56:44.720Z,54.16
2023-02-25T15:59:12.500Z,54.59
2023-02-25T16:01:43.120Z,54.93
2023-02-25T16:04:46.335Z,54.22
2023-02-25T16:07:21.041Z,54.43
2023-02-25T16:09:59.267Z,54.80
2023-02-25T16:12:27.377Z,54.89
2023-02-25T16:14:57.869Z,55.32
2023-02-25T16:17:34.783Z,55.71
2023-02-25T16:20:46.333Z,56.57
2023-02-25T16:23:15.831Z,57.40
2023-02-25T16:26:20.974Z,57.76
2023-02-25T16:28:59.191Z,58.33
2023-02-25T16:31:58.045Z,58.28
2023-02-25T16:34:46.001Z,58.65
2023-02-25T16:37:37.161Z,58.66
2023-02-25T16:40:06.629Z,59.02
2023-02-25T16:42:34.485Z,59.43
2023-02-25T16:45:05.597Z,59.87
2023-02-25T16:47:38.874Z,60.21
2023-02-25T16:50:15.841Z,61.75
2023-02-25T16:52:50.592Z,62.67
2023-02-25T16:55:31.552Z,62.36
2023-02-25T16:58:02.673Z,62.77
2023-02-25T17:00:29.684Z,62.53
2023-02-25T17:03:03.551Z,63.07
2023-02-25T17:05:37.913Z,63.90
2023-02-25T17:08:14.998Z,64.75
2023-02-25T17:10:53.216Z,65.26
2023-02-25T17:13:31.624Z,65.70
2023-02-25T17:16:03.918Z,64.36
2023-02-25T17:18:34.518Z,64.88
2023-02-25T17:21:27.153Z,66.29
2023-02-25T17:23:54.376Z,68.56
2023-02-25T17:26:21.682Z,70.82
2023-02-25T17:28:55.735Z,72.84
2023-02-25T17:31:27.072Z,76.00
2023-02-25T17:33:55.579Z,79.67
2023-02-25T17:36:39.277Z,82.01
2023-02-25T17:39:17.062Z,84.00
2023-02-25T17:41:46.085Z,83.68
2023-02-25T17:44:42.916Z,86.40
2023-02-25T17:47:18.868Z,89.13
2023-02-25T17:49:45.819Z,86.97
2023-02-25T17:52:27.863Z,90.06
2023-02-25T17:55:22.271Z,90.27
2023-02-25T17:57:55.984Z,88.95
2023-02-25T18:00:31.858Z,88.67
2023-02-25T18:03:21.399Z,89.19
2023-02-25T18:06:03.709Z,87.38
2023-02-25T18:08:49.713Z,87.85
2023-02-25T18:11:28.608Z,85.96
2023-02-25T18:13:56.181Z,83.79
2023-02-25T18:16:41.315Z,82.35
2023-02-25T18:19:38.858Z,82.13
2023-02-25T18:22:21.691Z,81.83
2023-02-25T18:24:55.566Z,80.50
2023-02-25T18:27:30.256Z,76.43
2023-02-25T18:30:18.162Z,76.61
2023-02-25T18:32:46.951Z,75.52
2023-02-25T18:35:15.064Z,76.61
2023-02-25T18:37:47.882Z,76.89
2023-02-25T18:40:39.682Z,75.02
2023-02-25T18:43:18.344Z,74.67
2023-02-25T18:45:46.440Z,75.88
2023-02-25T18:48:13.703Z,76.96
2023-02-25T18:50:44.608Z,77.37
2023-02-25T18:53:23.202Z,75.21
2023-02-25T18:55:51.858Z,74.93
2023-02-25T18:58:21.829Z,73.87
2023-02-25T19:00:53.634Z,74.57
2023-02-25T19:03:33.487Z,73.80
2023-02-25T19:06:01.110Z,74.24
2023-02-25T19:08:27.963Z,74.42
2023-02-25T19:10:55.073Z,73.85
2023-02-25T19:13:40.732Z,74.33
2023-02-25T19:16:08.696Z,73.88
2023-02-25T19:18:36.732Z,73.91
2023-02-25T19:21:06.398Z,73.25
2023-02-25T19:23:33.220Z,75.06
2023-02-25T19:26:01.203Z,73.06
2023-02-25T19:28:28.221Z,72.33
2023-02-25T19:30:56.762Z,73.29
2023-02-25T19:33:23.591Z,73.68
2023-02-25T19:35:50.446Z,73.56
2023-02-25T19:38:19.932Z,74.19
2023-02-25T19:40:48.077Z,73.19
2023-02-25T19:43:17.496Z,73.08
2023-02-25T19:45:44.993Z,73.24
2023-02-25T19:48:12.189Z,72.78
2023-02-25T19:50:41.619Z,73.66
2023-02-25T19:53:09.149Z,72.08
2023-02-25T19:55:36.351Z,71.50
2023-02-25T19:58:03.301Z,72.59
2023-02-25T20:00:30.353Z,72.08
2023-02-25T20:02:58.041Z,71.89
2023-02-25T20:05:25.599Z,69.68
2023-02-25T20:07:52.577Z,69.89
2023-02-25T20:10:19.940Z,68.81
2023-02-25T20:12:47.895Z,68.71
2023-02-25T20:15:16.893Z,69.95
2023-02-25T20:17:45.554Z,69.50
2023-02-25T20:20:18.352Z,68.34
2023-02-25T20:22:45.380Z,69.31
2023-02-25T20:25:13.852Z,68.40
2023-02-25T20:27:43.423Z,69.21
2023-02-25T20:30:15.668Z,68.89
2023-02-25T20:32:46.074Z,67.69
2023-02-25T20:35:21.668Z,65.94
2023-02-25T20:38:30.931Z,65.29
2023-02-25T20:40:58.217Z,64.32
2023-02-25T20:43:25.455Z,65.42
2023-02-25T20:45:52.631Z,65.43
2023-02-25T20:48:32.829Z,66.05
2023-02-25T20:51:00.103Z,65.28
2023-02-25T20:53:27.462Z,64.71
2023-02-25T20:55:57.657Z,63.60
2023-02-25T20:58:24.595Z,64.64
2023-02-25T21:00:54.230Z,63.56
2023-02-25T21:03:21.180Z,62.55
2023-02-25T21:05:48.271Z,63.84
2023-02-25T21:08:15.109Z,63.40
2023-02-25T21:10:43.335Z,62.70
2023-02-25T21:13:10.321Z,63.96
2023-02-25T21:15:37.219Z,63.81
2023-02-25T21:18:05.304Z,62.68
2023-02-25T21:20:32.760Z,62.87
2023-02-25T21:22:59.558Z,62.87
2023-02-25T21:25:30.880Z,62.46
2023-02-25T21:28:00.467Z,62.95
2023-02-25T21:30:27.607Z,63.68
2023-02-25T21:32:54.766Z,63.75
2023-02-25T21:35:27.341Z,64.03
2023-02-25T21:37:54.368Z,63.16
2023-02-25T21:40:21.584Z,61.13
2023-02-25T21:42:50.709Z,61.17
2023-02-25T21:45:20.652Z,60.26
2023-02-25T21:47:47.611Z,59.18
2023-02-25T21:50:14.688Z,59.20
2023-02-25T21:52:41.477Z,59.41
2023-02-25T21:55:09.265Z,58.80
2023-02-25T21:57:36.117Z,59.61
2023-02-25T22:00:03.768Z,59.46
2023-02-25T22:02:32.905Z,58.14
2023-02-25T22:05:01.267Z,58.24
2023-02-25T22:07:28.104Z,58.51
2023-02-25T22:09:54.820Z,58.84
2023-02-25T22:12:21.608Z,57.88
2023-02-25T22:14:50.781Z,58.63
2023-02-25T22:17:18.142Z,58.26
2023-02-25T22:19:45.086Z,58.03
2023-02-25T22:22:14.114Z,58.48
2023-02-25T22:24:41.715Z,57.56
2023-02-25T22:27:08.610Z,57.84
2023-02-25T22:29:35.388Z,58.01
2023-02-25T22:32:02.210Z,57.98
2023-02-25T22:34:31.728Z,57.68
2023-02-25T22:37:01.769Z,58.67
2023-02-25T22:39:28.528Z,58.05
2023-02-25T22:41:55.330Z,58.07
2023-02-25T22:44:22.460Z,58.53
2023-02-25T22:46:49.424Z,58.07
2023-02-25T22:49:16.204Z,58.09
2023-02-25T22:51:45.341Z,58.27
2023-02-25T22:54:15.827Z,58.38
2023-02-25T22:56:44.312Z,58.34
2023-02-25T22:59:13.067Z,58.08
2023-02-25T23:01:40.637Z,58.40
2023-02-25T23:04:10.375Z,58.85
2023-02-25T23:06:44.072Z,58.68
2023-02-25T23:09:15.598Z,58.66
2023-02-25T23:11:44.917Z,58.89
2023-02-25T23:14:15.019Z,58.69
2023-02-25T23:16:44.718Z,58.47
2023-02-25T23:19:17.107Z,58.83
2023-02-25T23:21:44.807Z,58.33
2023-02-25T23:24:19.478Z,58.35
2023-02-25T23:26:50.303Z,58.73
2023-02-25T23:29:17.640Z,58.35
2023-02-25T23:31:47.649Z,57.98
2023-02-25T23:34:26.251Z,58.36
2023-02-25T23:36:57.006Z,58.57
2023-02-25T23:39:24.216Z,58.72
2023-02-25T23:41:51.705Z,58.82
2023-02-25T23:44:19.205Z,58.17
2023-02-25T23:46:46.090Z,58.49
2023-02-25T23:49:16.549Z,58.29
2023-02-25T23:51:46.867Z,58.75
2023-02-25T23:54:18.320Z,58.53
2023-02-25T23:56:45.852Z,59.08
2023-02-25T23:59:13.495Z,59.06
